createdAt,value
2018-12-27T00:00:04.973Z,8.52
2018-12-27T00:01:04.952Z,8.57
2018-12-27T00:02:04.939Z,8.56
2018-12-27T00:03:04.924Z,8.63
2018-12-27T00:04:04.922Z,8.56
2018-12-27T00:05:04.901Z,8.50
2018-12-27T00:06:04.892Z,8.49
2018-12-27T00:07:04.880Z,8.52
2018-12-27T00:08:05.735Z,8.46
2018-12-27T00:09:04.859Z,8.39
2018-12-27T00:10:04.848Z,8.37
2018-12-27T00:11:04.838Z,8.47
2018-12-27T00:12:04.826Z,8.42
2018-12-27T00:13:04.814Z,8.52
2018-12-27T00:14:04.805Z,8.52
2018-12-27T00:15:04.793Z,8.47
2018-12-27T00:16:04.783Z,8.52
2018-12-27T00:17:04.772Z,8.46
2018-12-27T00:18:04.760Z,8.49
2018-12-27T00:19:04.751Z,8.47
2018-12-27T00:20:04.750Z,8.44
2018-12-27T00:21:04.752Z,8.41
2018-12-27T00:22:04.756Z,8.49
2018-12-27T00:23:04.708Z,8.52
2018-12-27T00:24:04.701Z,8.53
2018-12-27T00:25:04.704Z,8.49
2018-12-27T00:26:04.706Z,8.53
2018-12-27T00:27:04.709Z,8.46
2018-12-27T00:28:04.649Z,8.46
2018-12-27T00:29:04.640Z,8.52
2018-12-27T00:30:04.629Z,8.52
2018-12-27T00:31:04.618Z,8.52
2018-12-27T00:32:04.619Z,8.52
2018-12-27T00:33:04.597Z,8.42
2018-12-27T00:34:04.588Z,8.41
2018-12-27T00:35:04.573Z,8.42
2018-12-27T00:36:04.561Z,8.42
2018-12-27T00:37:04.556Z,8.46
2018-12-27T00:38:04.549Z,8.46
2018-12-27T00:39:04.537Z,8.52
2018-12-27T00:40:04.521Z,8.38
2018-12-27T00:41:04.507Z,8.34
2018-12-27T00:42:04.495Z,8.38
2018-12-27T00:43:04.486Z,8.38
2018-12-27T00:44:04.474Z,8.50
2018-12-27T00:45:04.466Z,8.49
2018-12-27T00:46:04.455Z,8.50
2018-12-27T00:47:04.444Z,8.53
2018-12-27T00:48:04.438Z,8.50
2018-12-27T00:49:04.419Z,8.47
2018-12-27T00:50:04.408Z,8.38
2018-12-27T00:51:04.407Z,8.33
2018-12-27T00:52:04.434Z,8.37
2018-12-27T00:53:04.377Z,8.25
2018-12-27T00:54:04.367Z,8.20
2018-12-27T00:55:04.353Z,8.23
2018-12-27T00:56:04.345Z,8.22
2018-12-27T00:57:04.332Z,8.19
2018-12-27T00:58:04.322Z,8.23
2018-12-27T00:59:04.310Z,8.23
2018-12-27T01:00:04.298Z,8.22
2018-12-27T01:01:04.288Z,8.16
2018-12-27T01:02:04.277Z,8.20
2018-12-27T01:03:11.019Z,8.18
2018-12-27T01:04:28.735Z,8.19
2018-12-27T01:05:28.721Z,8.19
2018-12-27T01:06:28.711Z,8.22
2018-12-27T01:07:28.707Z,8.27
2018-12-27T01:08:28.696Z,8.16
2018-12-27T01:09:28.688Z,8.31
2018-12-27T01:10:28.670Z,8.27
2018-12-27T01:11:28.656Z,8.18
2018-12-27T01:12:28.645Z,8.30
2018-12-27T01:13:28.637Z,8.19
2018-12-27T01:14:28.622Z,8.27
2018-12-27T01:15:28.614Z,8.37
2018-12-27T01:16:28.601Z,8.30
2018-12-27T01:17:28.589Z,8.42
2018-12-27T01:18:28.617Z,8.28
2018-12-27T01:19:28.567Z,8.39
2018-12-27T01:20:28.556Z,8.33
2018-12-27T01:21:28.547Z,8.20
2018-12-27T01:22:28.533Z,8.22
2018-12-27T01:23:28.522Z,8.20
2018-12-27T01:24:28.511Z,8.11
2018-12-27T01:25:28.500Z,8.19
2018-12-27T01:26:28.489Z,8.18
2018-12-27T01:27:28.478Z,8.15
2018-12-27T01:28:28.475Z,8.18
2018-12-27T01:29:28.459Z,8.09
2018-12-27T01:30:28.445Z,8.13
2018-12-27T01:31:28.436Z,8.18
2018-12-27T01:32:28.427Z,8.19
2018-12-27T01:33:28.418Z,8.15
2018-12-27T01:34:28.404Z,8.23
2018-12-27T01:35:28.390Z,8.19
2018-12-27T01:36:28.380Z,8.15
2018-12-27T01:37:28.376Z,8.16
2018-12-27T01:38:28.356Z,8.27
2018-12-27T01:39:28.346Z,8.28
2018-12-27T01:40:28.334Z,8.16
2018-12-27T01:41:28.328Z,8.20
2018-12-27T01:42:28.312Z,8.15
2018-12-27T01:43:28.301Z,8.19
2018-12-27T01:44:28.294Z,8.18
2018-12-27T01:45:28.283Z,8.20
2018-12-27T01:46:28.269Z,8.19
2018-12-27T01:47:28.258Z,8.20
2018-12-27T01:48:28.251Z,8.19
2018-12-27T01:49:28.237Z,8.19
2018-12-27T01:50:28.225Z,8.13
2018-12-27T01:51:28.215Z,8.20
2018-12-27T01:52:28.204Z,8.22
2018-12-27T01:53:28.192Z,8.25
2018-12-27T01:54:28.181Z,8.25
2018-12-27T01:55:28.169Z,8.20
2018-12-27T01:56:28.162Z,8.22
2018-12-27T01:57:28.148Z,8.23
2018-12-27T01:58:28.140Z,8.15
2018-12-27T01:59:28.124Z,8.16
2018-12-27T02:00:28.117Z,8.18
2018-12-27T02:01:28.103Z,8.18
2018-12-27T02:02:28.091Z,8.16
2018-12-27T02:03:28.081Z,8.16
2018-12-27T02:04:28.068Z,8.25
2018-12-27T02:05:28.057Z,8.23
2018-12-27T02:06:28.049Z,8.30
2018-12-27T02:07:28.035Z,8.28
2018-12-27T02:08:28.025Z,8.27
2018-12-27T02:09:28.030Z,8.18
2018-12-27T02:10:28.008Z,8.19
2018-12-27T02:11:28.000Z,8.19
2018-12-27T02:12:28.013Z,8.12
2018-12-27T02:13:27.973Z,8.22
2018-12-27T02:14:27.962Z,8.18
2018-12-27T02:15:27.951Z,8.15
2018-12-27T02:16:27.934Z,8.25
2018-12-27T02:17:27.925Z,8.20
2018-12-27T02:18:27.912Z,8.20
2018-12-27T02:19:27.906Z,8.18
2018-12-27T02:20:27.894Z,8.09
2018-12-27T02:21:27.879Z,8.13
2018-12-27T02:22:27.868Z,8.16
2018-12-27T02:23:27.857Z,8.20
2018-12-27T02:24:27.853Z,8.18
2018-12-27T02:25:27.840Z,8.25
2018-12-27T02:26:27.828Z,8.22
2018-12-27T02:27:27.812Z,8.27
2018-12-27T02:28:27.802Z,8.28
2018-12-27T02:29:27.791Z,8.22
2018-12-27T02:30:27.784Z,8.19
2018-12-27T02:31:27.768Z,8.25
2018-12-27T02:32:27.798Z,8.30
2018-12-27T02:33:35.065Z,8.18
2018-12-27T02:34:52.215Z,8.28
2018-12-27T02:35:52.206Z,8.25
2018-12-27T02:36:52.200Z,8.23
2018-12-27T02:37:52.189Z,8.18
2018-12-27T02:38:52.173Z,8.19
2018-12-27T02:39:52.162Z,8.18
2018-12-27T02:40:52.161Z,8.23
2018-12-27T02:41:52.143Z,8.27
2018-12-27T02:42:52.134Z,8.20
2018-12-27T02:43:52.121Z,8.20
2018-12-27T02:44:52.108Z,8.34
2018-12-27T02:45:52.103Z,8.33
2018-12-27T02:46:52.088Z,8.33
2018-12-27T02:47:52.075Z,8.31
2018-12-27T02:48:52.064Z,8.33
2018-12-27T02:49:52.054Z,8.38
2018-12-27T02:50:52.042Z,8.34
2018-12-27T02:51:52.032Z,8.19
2018-12-27T02:52:52.025Z,8.25
2018-12-27T02:53:52.009Z,8.20
2018-12-27T02:54:52.006Z,8.25
2018-12-27T02:55:51.986Z,8.28
2018-12-27T02:56:51.976Z,8.23
2018-12-27T02:57:51.964Z,8.28
2018-12-27T02:58:51.953Z,8.19
2018-12-27T02:59:51.944Z,8.16
2018-12-27T03:00:51.933Z,8.20
2018-12-27T03:01:51.921Z,8.20
2018-12-27T03:02:51.911Z,8.15
2018-12-27T03:03:51.899Z,8.19
2018-12-27T03:04:51.889Z,8.19
2018-12-27T03:05:51.879Z,8.20
2018-12-27T03:06:51.864Z,8.15
2018-12-27T03:07:51.852Z,8.16
2018-12-27T03:08:51.844Z,8.16
2018-12-27T03:09:51.833Z,8.15
2018-12-27T03:10:51.826Z,8.18
2018-12-27T03:11:51.809Z,8.27
2018-12-27T03:12:51.798Z,8.16
2018-12-27T03:13:51.786Z,8.13
2018-12-27T03:14:51.775Z,8.22
2018-12-27T03:15:51.765Z,8.19
2018-12-27T03:16:51.763Z,8.18
2018-12-27T03:17:51.747Z,8.13
2018-12-27T03:18:51.735Z,8.22
2018-12-27T03:19:51.720Z,8.04
2018-12-27T03:20:51.711Z,8.20
2018-12-27T03:21:51.710Z,8.19
2018-12-27T03:22:51.687Z,8.18
2018-12-27T03:23:51.676Z,8.19
2018-12-27T03:24:51.665Z,8.16
2018-12-27T03:25:51.669Z,8.22
2018-12-27T03:26:51.646Z,8.16
2018-12-27T03:27:51.636Z,8.19
2018-12-27T03:28:51.621Z,8.08
2018-12-27T03:29:51.610Z,8.13
2018-12-27T03:30:51.607Z,8.13
2018-12-27T03:31:51.590Z,8.13
2018-12-27T03:32:51.603Z,8.16
2018-12-27T03:33:52.791Z,8.12
2018-12-27T03:34:51.559Z,8.16
2018-12-27T03:35:51.543Z,8.09
2018-12-27T03:36:51.531Z,8.11
2018-12-27T03:37:51.523Z,8.03
2018-12-27T03:38:51.509Z,8.08
2018-12-27T03:39:51.503Z,8.03
2018-12-27T03:40:51.487Z,8.16
2018-12-27T03:41:51.478Z,8.05
2018-12-27T03:42:51.467Z,7.94
2018-12-27T03:43:51.459Z,8.09
2018-12-27T03:44:51.451Z,8.11
2018-12-27T03:45:51.434Z,8.00
2018-12-27T03:46:51.420Z,8.03
2018-12-27T03:47:51.409Z,8.05
2018-12-27T03:48:51.398Z,8.12
2018-12-27T03:49:51.384Z,8.08
2018-12-27T03:50:51.373Z,8.08
2018-12-27T03:51:51.366Z,8.00
2018-12-27T03:52:51.349Z,8.09
2018-12-27T03:53:51.342Z,8.13
2018-12-27T03:54:51.336Z,8.11
2018-12-27T03:55:51.320Z,8.08
2018-12-27T03:56:51.307Z,8.08
2018-12-27T03:57:51.298Z,8.12
2018-12-27T03:58:51.285Z,8.05
2018-12-27T03:59:51.277Z,8.11
2018-12-27T04:00:51.266Z,8.05
2018-12-27T04:01:51.252Z,8.09
2018-12-27T04:02:51.245Z,8.04
2018-12-27T04:03:51.229Z,8.05
2018-12-27T04:04:51.216Z,8.03
2018-12-27T04:05:51.209Z,7.93
2018-12-27T04:06:51.196Z,7.97
2018-12-27T04:07:51.182Z,8.03
2018-12-27T04:08:51.179Z,7.93
2018-12-27T04:09:51.173Z,7.98
2018-12-27T04:10:51.213Z,7.93
2018-12-27T04:11:51.138Z,8.05
2018-12-27T04:12:51.128Z,8.01
2018-12-27T04:13:51.119Z,7.93
2018-12-27T04:14:51.112Z,7.97
2018-12-27T04:15:51.092Z,7.98
2018-12-27T04:16:51.087Z,7.91
2018-12-27T04:17:51.071Z,7.98
2018-12-27T04:18:51.067Z,7.97
2018-12-27T04:19:51.046Z,7.87
2018-12-27T04:20:51.091Z,7.93
2018-12-27T04:21:51.032Z,7.97
2018-12-27T04:22:51.012Z,7.91
2018-12-27T04:23:51.005Z,7.93
2018-12-27T04:24:50.996Z,7.95
2018-12-27T04:25:50.980Z,7.94
2018-12-27T04:26:50.974Z,7.91
2018-12-27T04:27:50.956Z,7.82
2018-12-27T04:28:50.950Z,7.80
2018-12-27T04:29:50.937Z,7.90
2018-12-27T04:30:50.923Z,7.90
2018-12-27T04:31:50.912Z,7.98
2018-12-27T04:32:50.903Z,7.98
2018-12-27T04:33:50.889Z,7.95
2018-12-27T04:34:50.879Z,7.94
2018-12-27T04:35:50.867Z,7.94
2018-12-27T04:36:50.855Z,7.91
2018-12-27T04:37:50.843Z,8.00
2018-12-27T04:38:50.835Z,7.97
2018-12-27T04:39:50.825Z,7.91
2018-12-27T04:40:50.811Z,7.95
2018-12-27T04:41:50.799Z,7.93
2018-12-27T04:42:50.787Z,7.97
2018-12-27T04:43:50.777Z,7.91
2018-12-27T04:44:50.765Z,7.97
2018-12-27T04:45:50.753Z,7.95
2018-12-27T04:46:50.744Z,7.90
2018-12-27T04:47:50.736Z,7.94
2018-12-27T04:48:50.719Z,7.90
2018-12-27T04:49:50.714Z,7.93
2018-12-27T04:50:50.703Z,7.93
2018-12-27T04:51:50.692Z,7.95
2018-12-27T04:52:50.677Z,7.91
2018-12-27T04:53:50.668Z,7.97
2018-12-27T04:54:50.668Z,7.90
2018-12-27T04:55:50.678Z,7.95
2018-12-27T04:56:50.682Z,7.91
2018-12-27T04:57:50.624Z,7.98
2018-12-27T04:58:50.622Z,7.94
2018-12-27T04:59:50.621Z,7.98
2018-12-27T05:00:50.624Z,7.82
2018-12-27T05:01:50.572Z,7.83
2018-12-27T05:02:50.565Z,7.91
2018-12-27T05:03:50.548Z,7.85
2018-12-27T05:04:50.537Z,7.83
2018-12-27T05:05:50.533Z,7.75
2018-12-27T05:06:50.519Z,7.76
2018-12-27T05:07:50.504Z,7.75
2018-12-27T05:08:50.541Z,7.76
2018-12-27T05:09:50.480Z,7.75
2018-12-27T05:10:50.473Z,7.75
2018-12-27T05:11:50.459Z,7.76
2018-12-27T05:12:50.450Z,7.72
2018-12-27T05:13:50.434Z,7.76
2018-12-27T05:14:50.425Z,7.65
2018-12-27T05:15:50.421Z,7.72
2018-12-27T05:16:50.407Z,7.80
2018-12-27T05:17:50.391Z,7.75
2018-12-27T05:18:50.395Z,7.80
2018-12-27T05:19:50.366Z,7.79
2018-12-27T05:20:50.361Z,7.82
2018-12-27T05:21:50.355Z,7.75
2018-12-27T05:22:50.338Z,7.85
2018-12-27T05:23:50.322Z,7.77
2018-12-27T05:24:50.310Z,7.85
2018-12-27T05:25:50.298Z,7.85
2018-12-27T05:26:50.287Z,7.90
2018-12-27T05:27:50.277Z,7.80
2018-12-27T05:28:50.264Z,7.94
2018-12-27T05:29:50.258Z,7.90
2018-12-27T05:30:50.241Z,7.93
2018-12-27T05:31:51.733Z,7.97
2018-12-27T05:32:50.218Z,7.86
2018-12-27T05:33:50.207Z,7.79
2018-12-27T05:34:50.196Z,7.75
2018-12-27T05:35:50.185Z,7.85
2018-12-27T05:36:50.181Z,7.68
2018-12-27T05:37:50.160Z,7.65
2018-12-27T05:38:50.149Z,7.57
2018-12-27T05:39:50.146Z,7.60
2018-12-27T05:40:50.130Z,7.62
2018-12-27T05:41:50.120Z,7.65
2018-12-27T05:42:50.105Z,7.72
2018-12-27T05:43:50.098Z,7.57
2018-12-27T05:44:50.081Z,7.62
2018-12-27T05:45:50.071Z,7.61
2018-12-27T05:46:50.059Z,7.55
2018-12-27T05:47:50.050Z,7.54
2018-12-27T05:48:50.047Z,7.49
2018-12-27T05:49:50.025Z,7.64
2018-12-27T05:50:50.013Z,7.50
2018-12-27T05:51:50.004Z,7.47
2018-12-27T05:52:49.990Z,7.49
2018-12-27T05:53:49.979Z,7.57
2018-12-27T05:54:49.971Z,7.52
2018-12-27T05:55:49.957Z,7.67
2018-12-27T05:56:49.947Z,7.65
2018-12-27T05:57:49.939Z,7.61
2018-12-27T05:58:49.922Z,7.70
2018-12-27T05:59:49.918Z,7.58
2018-12-27T06:00:49.906Z,7.57
2018-12-27T06:01:49.889Z,7.57
2018-12-27T06:02:49.878Z,7.60
2018-12-27T06:03:49.869Z,7.57
2018-12-27T06:04:49.854Z,7.64
2018-12-27T06:05:49.847Z,7.58
2018-12-27T06:06:49.832Z,7.60
2018-12-27T06:07:49.823Z,7.68
2018-12-27T06:08:49.810Z,7.64
2018-12-27T06:09:49.801Z,7.60
2018-12-27T06:10:49.788Z,7.57
2018-12-27T06:11:49.775Z,7.47
2018-12-27T06:12:49.763Z,7.61
2018-12-27T06:13:49.753Z,7.55
2018-12-27T06:14:49.742Z,7.57
2018-12-27T06:15:49.728Z,7.58
2018-12-27T06:16:49.719Z,7.67
2018-12-27T06:17:49.710Z,7.61
2018-12-27T06:18:49.702Z,7.50
2018-12-27T06:19:49.685Z,7.55
2018-12-27T06:20:49.673Z,7.55
2018-12-27T06:21:49.665Z,7.50
2018-12-27T06:22:49.650Z,7.52
2018-12-27T06:23:49.640Z,7.55
2018-12-27T06:24:49.636Z,7.47
2018-12-27T06:25:49.619Z,7.44
2018-12-27T06:26:49.607Z,7.46
2018-12-27T06:27:49.594Z,7.44
2018-12-27T06:28:49.585Z,7.52
2018-12-27T06:29:49.577Z,7.50
2018-12-27T06:30:49.560Z,7.46
2018-12-27T06:31:49.548Z,7.49
2018-12-27T06:32:49.543Z,7.44
2018-12-27T06:33:49.528Z,7.44
2018-12-27T06:34:49.512Z,7.44
2018-12-27T06:35:49.504Z,7.46
2018-12-27T06:36:49.492Z,7.47
2018-12-27T06:37:49.481Z,7.46
2018-12-27T06:38:49.469Z,7.46
2018-12-27T06:39:49.457Z,7.44
2018-12-27T06:40:49.444Z,7.47
2018-12-27T06:41:49.436Z,7.37
2018-12-27T06:42:49.424Z,7.40
2018-12-27T06:43:49.410Z,7.37
2018-12-27T06:44:49.401Z,7.36
2018-12-27T06:45:49.388Z,7.21
2018-12-27T06:46:49.377Z,7.25
2018-12-27T06:47:49.365Z,7.31
2018-12-27T06:48:49.355Z,7.28
2018-12-27T06:49:49.346Z,7.33
2018-12-27T06:50:49.337Z,7.29
2018-12-27T06:51:49.325Z,7.24
2018-12-27T06:52:49.309Z,7.24
2018-12-27T06:53:49.299Z,7.33
2018-12-27T06:54:49.289Z,7.25
2018-12-27T06:55:49.276Z,7.26
2018-12-27T06:56:49.267Z,7.26
2018-12-27T06:57:49.257Z,7.36
2018-12-27T06:58:49.242Z,7.40
2018-12-27T06:59:49.232Z,7.42
2018-12-27T07:00:49.221Z,7.34
2018-12-27T07:01:49.210Z,7.26
2018-12-27T07:02:49.198Z,7.26
2018-12-27T07:03:49.187Z,7.28
2018-12-27T07:04:49.264Z,7.28
2018-12-27T07:05:49.166Z,7.39
2018-12-27T07:06:49.155Z,7.31
2018-12-27T07:07:49.142Z,7.36
2018-12-27T07:08:49.134Z,7.34
2018-12-27T07:09:49.120Z,7.31
2018-12-27T07:10:49.114Z,7.34
2018-12-27T07:11:49.097Z,7.31
2018-12-27T07:12:49.088Z,7.22
2018-12-27T07:13:49.074Z,7.21
2018-12-27T07:14:49.062Z,7.22
2018-12-27T07:15:49.054Z,7.24
2018-12-27T07:16:49.039Z,7.21
2018-12-27T07:17:49.025Z,7.21
2018-12-27T07:18:49.024Z,7.13
2018-12-27T07:19:49.017Z,7.13
2018-12-27T07:20:48.994Z,7.13
2018-12-27T07:21:48.982Z,7.06
2018-12-27T07:22:48.972Z,7.15
2018-12-27T07:23:48.958Z,7.11
2018-12-27T07:24:48.951Z,7.10
2018-12-27T07:25:48.936Z,7.13
2018-12-27T07:26:48.925Z,7.16
2018-12-27T07:27:48.915Z,7.13
2018-12-27T07:28:48.908Z,6.96
2018-12-27T07:29:48.890Z,6.91
2018-12-27T07:30:48.878Z,6.92
2018-12-27T07:31:48.867Z,6.90
2018-12-27T07:32:48.863Z,6.84
2018-12-27T07:33:48.846Z,6.91
2018-12-27T07:34:56.245Z,6.91
2018-12-27T07:36:13.300Z,6.82
2018-12-27T07:37:13.287Z,6.78
2018-12-27T07:38:13.291Z,6.80
2018-12-27T07:39:13.265Z,6.73
2018-12-27T07:40:13.253Z,6.84
2018-12-27T07:41:13.241Z,6.77
2018-12-27T07:42:13.230Z,6.81
2018-12-27T07:43:13.219Z,6.78
2018-12-27T07:44:13.207Z,6.74
2018-12-27T07:45:13.203Z,6.73
2018-12-27T07:46:13.187Z,6.82
2018-12-27T07:47:13.174Z,6.84
2018-12-27T07:48:13.162Z,6.80
2018-12-27T07:49:13.149Z,6.80
2018-12-27T07:50:13.141Z,6.87
2018-12-27T07:51:13.129Z,6.88
2018-12-27T07:52:13.120Z,6.84
2018-12-27T07:53:13.111Z,6.78
2018-12-27T07:54:13.094Z,6.77
2018-12-27T07:55:13.089Z,6.84
2018-12-27T07:56:13.069Z,6.80
2018-12-27T07:57:13.059Z,6.82
2018-12-27T07:58:13.052Z,6.78
2018-12-27T07:59:13.035Z,6.85
2018-12-27T08:00:13.097Z,6.84
2018-12-27T08:01:13.013Z,6.85
2018-12-27T08:02:13.001Z,6.88
2018-12-27T08:03:12.989Z,6.88
2018-12-27T08:04:12.979Z,6.87
2018-12-27T08:05:12.969Z,6.96
2018-12-27T08:06:12.957Z,7.01
2018-12-27T08:07:12.945Z,6.97
2018-12-27T08:08:12.933Z,7.06
2018-12-27T08:09:12.928Z,6.99
2018-12-27T08:10:12.925Z,6.99
2018-12-27T08:11:12.897Z,7.10
2018-12-27T08:12:12.893Z,7.15
2018-12-27T08:13:12.881Z,7.11
2018-12-27T08:14:12.867Z,7.10
2018-12-27T08:15:12.859Z,7.16
2018-12-27T08:16:12.842Z,7.11
2018-12-27T08:17:12.858Z,7.21
2018-12-27T08:18:12.819Z,7.22
2018-12-27T08:19:12.810Z,7.08
2018-12-27T08:20:12.795Z,7.19
2018-12-27T08:21:12.823Z,7.11
2018-12-27T08:22:12.772Z,7.21
2018-12-27T08:23:12.775Z,7.07
2018-12-27T08:24:12.750Z,7.11
2018-12-27T08:25:12.739Z,6.97
2018-12-27T08:26:12.731Z,6.92
2018-12-27T08:27:12.715Z,7.01
2018-12-27T08:28:12.705Z,7.00
2018-12-27T08:29:12.692Z,6.99
2018-12-27T08:30:12.683Z,6.90
2018-12-27T08:31:12.675Z,6.99
2018-12-27T08:32:12.659Z,7.00
2018-12-27T08:33:12.649Z,6.96
2018-12-27T08:34:12.637Z,6.96
2018-12-27T08:35:12.625Z,7.00
2018-12-27T08:36:12.614Z,6.96
2018-12-27T08:37:12.603Z,6.85
2018-12-27T08:38:12.590Z,6.99
2018-12-27T08:39:12.579Z,6.90
2018-12-27T08:40:12.574Z,6.96
2018-12-27T08:41:12.556Z,6.92
2018-12-27T08:42:12.754Z,6.97
2018-12-27T08:43:12.535Z,6.92
2018-12-27T08:44:12.522Z,6.97
2018-12-27T08:45:12.514Z,7.00
2018-12-27T08:46:12.504Z,7.01
2018-12-27T08:47:12.487Z,7.04
2018-12-27T08:48:12.476Z,7.11
2018-12-27T08:49:12.466Z,7.11
2018-12-27T08:50:12.455Z,7.07
2018-12-27T08:51:12.443Z,7.10
2018-12-27T08:52:12.432Z,7.26
2018-12-27T08:53:12.420Z,7.22
2018-12-27T08:54:12.409Z,7.29
2018-12-27T08:55:12.396Z,7.33
2018-12-27T08:56:12.387Z,7.31
2018-12-27T08:57:12.376Z,7.36
2018-12-27T08:58:12.363Z,7.36
2018-12-27T08:59:12.352Z,7.36
2018-12-27T09:00:12.341Z,7.39
2018-12-27T09:01:12.331Z,7.43
2018-12-27T09:02:12.319Z,7.33
2018-12-27T09:03:12.311Z,7.44
2018-12-27T09:04:12.297Z,7.49
2018-12-27T09:05:18.716Z,7.46
2018-12-27T09:06:36.751Z,7.40
2018-12-27T09:07:36.738Z,7.47
2018-12-27T09:08:36.731Z,7.39
2018-12-27T09:09:36.722Z,7.37
2018-12-27T09:10:36.706Z,7.43
2018-12-27T09:11:36.696Z,7.40
2018-12-27T09:12:36.690Z,7.40
2018-12-27T09:13:36.675Z,7.42
2018-12-27T09:14:36.660Z,7.47
2018-12-27T09:15:36.654Z,7.43
2018-12-27T09:16:36.638Z,7.42
2018-12-27T09:17:36.631Z,7.43
2018-12-27T09:18:36.654Z,7.39
2018-12-27T09:19:36.614Z,7.46
2018-12-27T09:20:36.594Z,7.34
2018-12-27T09:21:36.582Z,7.37
2018-12-27T09:22:36.571Z,7.37
2018-12-27T09:23:36.564Z,7.28
2018-12-27T09:24:36.568Z,7.29
2018-12-27T09:25:36.577Z,7.33
2018-12-27T09:26:36.579Z,7.29
2018-12-27T09:27:36.522Z,7.34
2018-12-27T09:28:36.519Z,7.33
2018-12-27T09:29:36.522Z,7.33
2018-12-27T09:30:36.526Z,7.39
2018-12-27T09:31:36.531Z,7.40
2018-12-27T09:32:36.460Z,7.47
2018-12-27T09:33:36.452Z,7.42
2018-12-27T09:34:36.442Z,7.42
2018-12-27T09:35:36.427Z,7.44
2018-12-27T09:36:36.414Z,7.49
2018-12-27T09:37:36.402Z,7.44
2018-12-27T09:38:36.391Z,7.34
2018-12-27T09:39:36.386Z,7.25
2018-12-27T09:40:36.370Z,7.33
2018-12-27T09:41:36.359Z,7.22
2018-12-27T09:42:36.347Z,7.22
2018-12-27T09:43:36.343Z,7.24
2018-12-27T09:44:36.324Z,7.13
2018-12-27T09:45:36.311Z,7.21
2018-12-27T09:46:36.307Z,7.22
2018-12-27T09:47:36.290Z,7.22
2018-12-27T09:48:36.280Z,7.22
2018-12-27T09:49:36.274Z,7.19
2018-12-27T09:50:36.260Z,7.28
2018-12-27T09:51:36.246Z,7.28
2018-12-27T09:52:36.235Z,7.31
2018-12-27T09:53:36.226Z,7.26
2018-12-27T09:54:36.210Z,7.39
2018-12-27T09:55:36.200Z,7.39
2018-12-27T09:56:36.190Z,7.34
2018-12-27T09:57:36.182Z,7.36
2018-12-27T09:58:36.168Z,7.39
2018-12-27T09:59:36.160Z,7.46
2018-12-27T10:00:36.143Z,7.40
2018-12-27T10:01:36.132Z,7.43
2018-12-27T10:02:36.126Z,7.42
2018-12-27T10:03:36.110Z,7.36
2018-12-27T10:04:36.099Z,7.36
2018-12-27T10:05:36.087Z,7.42
2018-12-27T10:06:36.075Z,7.44
2018-12-27T10:07:36.065Z,7.42
2018-12-27T10:08:36.060Z,7.44
2018-12-27T10:09:36.041Z,7.46
2018-12-27T10:10:36.041Z,7.47
2018-12-27T10:11:36.022Z,7.52
2018-12-27T10:12:36.014Z,7.57
2018-12-27T10:13:36.005Z,7.70
2018-12-27T10:14:35.989Z,7.61
2018-12-27T10:15:35.982Z,7.61
2018-12-27T10:16:35.970Z,7.60
2018-12-27T10:17:35.953Z,7.72
2018-12-27T10:18:35.941Z,7.70
2018-12-27T10:19:35.929Z,7.80
2018-12-27T10:20:35.918Z,7.62
2018-12-27T10:21:35.906Z,7.62
2018-12-27T10:22:35.901Z,7.67
2018-12-27T10:23:35.885Z,7.70
2018-12-27T10:24:35.876Z,7.76
2018-12-27T10:25:35.863Z,7.79
2018-12-27T10:26:35.852Z,7.77
2018-12-27T10:27:35.846Z,7.72
2018-12-27T10:28:35.834Z,7.76
2018-12-27T10:29:35.820Z,7.67
2018-12-27T10:30:35.806Z,7.64
2018-12-27T10:31:35.796Z,7.62
2018-12-27T10:32:35.786Z,7.68
2018-12-27T10:33:35.774Z,7.61
2018-12-27T10:34:35.761Z,7.54
2018-12-27T10:35:41.129Z,7.47
2018-12-27T10:36:35.739Z,7.44
2018-12-27T10:37:35.728Z,7.43
2018-12-27T10:38:35.723Z,7.47
2018-12-27T10:39:35.706Z,7.44
2018-12-27T10:40:35.698Z,7.47
2018-12-27T10:41:35.689Z,7.54
2018-12-27T10:42:35.678Z,7.47
2018-12-27T10:43:35.663Z,7.49
2018-12-27T10:44:35.653Z,7.49
2018-12-27T10:45:35.641Z,7.43
2018-12-27T10:46:35.635Z,7.50
2018-12-27T10:47:35.622Z,7.46
2018-12-27T10:48:35.609Z,7.47
2018-12-27T10:49:35.597Z,7.55
2018-12-27T10:50:35.586Z,7.61
2018-12-27T10:51:35.573Z,7.47
2018-12-27T10:52:35.562Z,7.49
2018-12-27T10:53:35.557Z,7.49
2018-12-27T10:54:35.540Z,7.44
2018-12-27T10:55:35.532Z,7.46
2018-12-27T10:56:35.519Z,7.50
2018-12-27T10:57:35.508Z,7.47
2018-12-27T10:58:35.501Z,7.43
2018-12-27T10:59:35.485Z,7.42
2018-12-27T11:00:35.474Z,7.60
2018-12-27T11:01:35.471Z,7.61
2018-12-27T11:02:35.452Z,7.67
2018-12-27T11:03:35.445Z,7.64
2018-12-27T11:04:35.430Z,7.67
2018-12-27T11:05:35.418Z,7.67
2018-12-27T11:06:35.407Z,7.65
2018-12-27T11:07:35.399Z,7.83
2018-12-27T11:08:35.385Z,7.73
2018-12-27T11:09:35.375Z,7.86
2018-12-27T11:10:35.361Z,7.77
2018-12-27T11:11:35.351Z,7.90
2018-12-27T11:12:35.340Z,7.90
2018-12-27T11:13:35.334Z,7.97
2018-12-27T11:14:35.319Z,8.03
2018-12-27T11:15:35.308Z,7.97
2018-12-27T11:16:35.301Z,8.03
2018-12-27T11:17:35.285Z,8.09
2018-12-27T11:18:35.275Z,8.08
2018-12-27T11:19:35.262Z,8.16
2018-12-27T11:20:35.251Z,8.11
2018-12-27T11:21:35.246Z,8.09
2018-12-27T11:22:35.233Z,8.03
2018-12-27T11:23:35.220Z,8.09
2018-12-27T11:24:35.213Z,8.03
2018-12-27T11:25:35.204Z,7.95
2018-12-27T11:26:35.185Z,8.18
2018-12-27T11:27:35.175Z,8.05
2018-12-27T11:28:35.167Z,8.13
2018-12-27T11:29:35.156Z,8.01
2018-12-27T11:30:35.142Z,7.95
2018-12-27T11:31:35.133Z,7.93
2018-12-27T11:32:35.118Z,7.97
2018-12-27T11:33:35.112Z,8.05
2018-12-27T11:34:35.097Z,8.12
2018-12-27T11:35:35.087Z,8.16
2018-12-27T11:36:35.076Z,8.15
2018-12-27T11:37:35.065Z,8.11
2018-12-27T11:38:35.055Z,8.11
2018-12-27T11:39:35.042Z,8.16
2018-12-27T11:40:35.034Z,8.12
2018-12-27T11:41:35.024Z,8.16
2018-12-27T11:42:35.008Z,8.18
2018-12-27T11:43:34.998Z,8.20
2018-12-27T11:44:34.987Z,8.22
2018-12-27T11:45:34.979Z,8.12
2018-12-27T11:46:34.964Z,8.20
2018-12-27T11:47:34.951Z,8.27
2018-12-27T11:48:34.940Z,8.20
2018-12-27T11:49:34.930Z,8.27
2018-12-27T11:50:34.928Z,8.25
2018-12-27T11:51:34.907Z,8.30
2018-12-27T11:52:34.903Z,8.22
2018-12-27T11:53:34.892Z,8.25
2018-12-27T11:54:34.899Z,8.27
2018-12-27T11:55:34.863Z,8.13
2018-12-27T11:56:34.861Z,8.20
2018-12-27T11:57:34.842Z,8.11
2018-12-27T11:58:34.830Z,8.20
2018-12-27T11:59:34.819Z,8.13
2018-12-27T12:00:34.810Z,8.15
2018-12-27T12:01:34.808Z,8.13
2018-12-27T12:02:34.790Z,8.18
2018-12-27T12:03:34.774Z,8.08
2018-12-27T12:04:34.762Z,8.15
2018-12-27T12:05:34.756Z,8.12
2018-12-27T12:06:34.742Z,8.09
2018-12-27T12:07:34.729Z,8.05
2018-12-27T12:08:34.730Z,8.12
2018-12-27T12:09:34.708Z,8.15
2018-12-27T12:10:34.698Z,8.15
2018-12-27T12:11:34.695Z,8.16
2018-12-27T12:12:34.680Z,8.09
2018-12-27T12:13:34.666Z,8.03
2018-12-27T12:14:34.653Z,8.03
2018-12-27T12:15:34.645Z,8.04
2018-12-27T12:16:34.635Z,8.11
2018-12-27T12:17:34.620Z,8.01
2018-12-27T12:18:34.615Z,8.01
2018-12-27T12:19:34.601Z,7.97
2018-12-27T12:20:35.721Z,8.03
2018-12-27T12:21:34.582Z,7.94
2018-12-27T12:22:34.570Z,8.05
2018-12-27T12:23:34.559Z,8.05
2018-12-27T12:24:34.542Z,7.98
2018-12-27T12:25:34.530Z,8.12
2018-12-27T12:26:34.525Z,8.04
2018-12-27T12:27:34.512Z,8.11
2018-12-27T12:28:34.502Z,8.16
2018-12-27T12:29:34.492Z,8.12
2018-12-27T12:30:34.477Z,8.08
2018-12-27T12:31:34.470Z,8.05
2018-12-27T12:32:34.451Z,8.05
2018-12-27T12:33:34.450Z,7.97
2018-12-27T12:34:34.430Z,7.94
2018-12-27T12:35:34.427Z,8.05
2018-12-27T12:36:34.413Z,8.08
2018-12-27T12:37:34.404Z,8.13
2018-12-27T12:38:34.388Z,8.16
2018-12-27T12:39:34.375Z,8.13
2018-12-27T12:40:35.577Z,8.12
2018-12-27T12:41:34.352Z,8.16
2018-12-27T12:42:34.341Z,8.18
2018-12-27T12:43:34.328Z,8.16
2018-12-27T12:44:34.325Z,8.18
2018-12-27T12:45:34.311Z,8.16
2018-12-27T12:46:34.297Z,8.16
2018-12-27T12:47:34.286Z,8.16
2018-12-27T12:48:34.276Z,8.18
2018-12-27T12:49:34.263Z,8.16
2018-12-27T12:50:34.250Z,8.25
2018-12-27T12:51:34.240Z,8.15
2018-12-27T12:52:34.230Z,8.13
2018-12-27T12:53:34.218Z,8.08
2018-12-27T12:54:34.212Z,8.08
2018-12-27T12:55:34.206Z,8.08
2018-12-27T12:56:34.189Z,8.11
2018-12-27T12:57:34.174Z,8.08
2018-12-27T12:58:34.166Z,8.09
2018-12-27T12:59:34.153Z,8.12
2018-12-27T13:00:34.145Z,8.22
2018-12-27T13:01:34.134Z,8.16
2018-12-27T13:02:34.125Z,8.22
2018-12-27T13:03:34.109Z,8.12
2018-12-27T13:04:34.098Z,8.18
2018-12-27T13:05:34.092Z,8.28
2018-12-27T13:06:34.077Z,8.28
2018-12-27T13:07:35.636Z,8.20
2018-12-27T13:08:34.053Z,8.15
2018-12-27T13:09:34.047Z,8.15
2018-12-27T13:10:34.041Z,8.15
2018-12-27T13:11:34.022Z,8.20
2018-12-27T13:12:34.015Z,8.20
2018-12-27T13:13:34.003Z,8.27
2018-12-27T13:14:33.994Z,8.19
2018-12-27T13:15:33.982Z,8.13
2018-12-27T13:16:33.970Z,8.19
2018-12-27T13:17:33.956Z,8.15
2018-12-27T13:18:33.948Z,8.19
2018-12-27T13:19:33.935Z,8.11